Filer, Idaho
Current Conditions -  °F | °C
As of 11:53 AM on Thursday 23 Oct 2014 (Local Time) from KTWF Reporting Station
Broken Clouds Broken Clouds  
Wind Chill: 62°   Ceiling: 12000
Heat Index: 62°   Visibility: 10mi
Dew Point: 35°   Wind: 5mph
Humidity: 37%   Direction: 300°WNW
Pressure: 30.13"   Gusts: NA
Location:  42.57°N, 114.61°W
Report Text: KTWF 231753Z 30004KT 10SM BKN120 17/02 A3013 RMK AO2 SLP172 T01670017 10172 20061 51014
Loading
Personal Weather Stations






























Interactive Weather Map
Tropical Storm Tracking
New forecast layout! Learn more

10-Day Weather Forecast

Advertisements
Track Severe Weather on mobile